Aeroporto :
LOGIN :

Iscrizione | Disclaimer

   EN    FR    IT 

 










Sommario :    VFR   VFR Marginale   IFR   IFR Intensivo   IFR Molto Intensivo
Visibilità : 
Base nubi : 
>= 8 km
>= 3000ft
5 / 8 km
1000 / 3000 ft
1500m / 5 km
500 / 1000 ft
800 / 1500m
200 / 500 ft
< 800m
< 200 ft
Simboli :   Temporali  Nebbia  Neve Forte  Precipitazioni Forti  Vento > 20 kt
SIGMETs :   Varie  Temporali  Ghiacco  Turbolenza  Onda orograficha  Ceneri Vulcaniche






- Altitudine del aeroporto : 302 ft
- Codice IATA : MAH


LEMH - Menorca

ULTIMO METAR :
  • 171800Z 26004KT 230V290 9000 BKN018 14/12 Q1026

METARs OBSOLETI :
  • 171730Z 25004KT 9999 BKN017 14/12 Q1025
  • 171700Z 23003KT 9999 BKN017 14/12 Q1025
  • 171630Z 25003KT 230V290 9999 BKN015 14/11 Q1025
  • 171600Z 25006KT 220V300 9999 BKN014 14/11 Q1025
  • 171530Z 24007KT 200V280 9999 BKN012 14/11 Q1024

TAF TAF LEMH
Valido dal 17 a 15 ore il 18 a 15 ore UTC


171400Z 1715/1815 21010KT 9999 BKN014 TX15/1812Z TN10/1806Z
BECMG 1720/1722 03010KT
PROB40
TEMPO 1800/1809 03015G27KT



MetMap, La meteo Aeronautica in un colpo d'occhio ! - Copyright ORBIFLY Dicembre 2007 - Disclaimer

ORBIFLY MET'MAP TEAM :

Programmazione e sviluppo : Alexandra Zaïnal
Concezione : Baudouin d'Aumeries
Aiuto per la programmazione : Marc-Olivier Méhu
Supporto tecnico e logistico : Manuel Goepfert
Aiuto per la traduzione : Arnaldo La Scala

Contatto : metmap@orbifly.com




FONTI E CREDITI :

   NOAA